Las Cabezas de San Juan, Spain
Current Conditions -  °F | °C
As of 12:00 PM on Saturday 01 Nov 2014 (Local Time) from LEMO Reporting Station
Clear Clear  
Wind Chill: 73°   Ceiling: Unl
Heat Index: 73°   Visibility: 6mi
Dew Point: 45°   Wind: 1mph
Humidity: 36%   Direction: NA
Pressure: 30.18"   Gusts: NA
Location:  36.98°N, 5.94°W
Report Text: LEMO 011100Z VRB01KT CAVOK 23/07 Q1022 NOSIG
Loading
Personal Weather Stations






























Interactive Weather Map
Tropical Storm Tracking
New forecast layout! Learn more

10-Day Weather Forecast

Advertisements
Track Severe Weather on mobile